AirNav   Everest Fuels
 
 1114 users online  

1FA3 Pine Island Airport
Fort Myers, Florida, USA

GOING TO FORT MYERS?


FAA INFORMATION EFFECTIVE 07 NOVEMBER 2019

Location

FAA Identifier: 1FA3
Lat/Long: 26-39-28.2800N 082-07-16.1400W
26-39.471333N 082-07.269000W
26.6578556,-82.1211500
(estimated)
Elevation: 12 ft. / 4 m (estimated)
Variation: 02W (1985)
From city: 14 miles W of FORT MYERS, FL
Time zone: UTC -5 (UTC -4 during Daylight Saving Time)
Zip code: 33922

Airport Operations

Airport use: Private use. Permission required prior to landing
Control tower: no
ARTCC: MIAMI CENTER
FSS: MIAMI FLIGHT SERVICE STATION
Attendance: UNATNDD
Wind indicator: yes
Segmented circle: no

Airport Communications

UNICOM: 123.075
WX ASOS at FMY (14 nm E): 123.725 (239-936-2318)
WX ASOS at PGD (17 nm NE): 135.675 (941-639-0076)

Nearby radio navigation aids

VOR radial/distance  VOR name  Freq  Var
PGDr210/(17.0)PUNTA GORDA VOR110.2006W
RSWr295/20.1LEE COUNTY VORTAC111.8002W
CYYr332/35.4CYPRESS VOR/DME108.6003W

 
NDB name  Hdg/Dist  Freq  Var  ID
CALOO316/12.534103WFM ..-. --

Airport Services

Runway Information

Runway 9/27

Dimensions: 2658 x 100 ft. / 810 x 30 m
Surface: turf
RUNWAY 9  RUNWAY 27
Traffic pattern: leftleft

Airport Ownership and Management from official FAA records

Ownership: Privately-owned
Owner: DENISE M DAGGETT / THOMAS LANNERS
BOX 309
PINELAND, FL 33945
Phone 907-315-5668
Manager: ALLEN EDWARDS
13350 MORNINGSTAR LANE
BOKEELIA, FL 33922
Phone 678-495-8753

Airport Operational Statistics

Aircraft based on the field: 10
Single engine airplanes: 7
Ultralights: 3
    

Additional Remarks

RENTAL HNGRS & TIEDOWNS AVBL.
AVOID OVR FLT OF HOMES E OF ARPT.
KEEP TO CENTER OF RWY.
FOR CD CTC FORT MYERS APCH AT 239-768-1377, WHEN APCH CLSD CTC MIAMI ARTCC AT 305-716-1731.

Instrument Procedures

There are no published instrument procedures at 1FA3.

Some nearby airports with instrument procedures:

KFMY - Page Field Airport (14 nm E)
KPGD - Punta Gorda Airport (17 nm NE)
KRSW - Southwest Florida International Airport (21 nm E)
KVNC - Venice Municipal Airport (30 nm NW)
KAPF - Naples Municipal Airport (36 nm SE)
 
Loc | Ops | Rwys | IFR | FBO | Links
Com | Nav | Svcs | Stats | Notes

Reliance Aviation
AirBoss

 
Area around 1FA3 (Pine Island Airport)
 
Road maps at: MapQuest Bing Google
 
Aerial photo
WARNING: Photo may not be current or correct
Aerial photo of 1FA3 (Pine Island Airport)
Photo by Steven Martin @ Eaglevision Media LLC
Photo taken 12-Jan-2017
looking southwest.

Do you have a better or more recent aerial photo of Pine Island Airport that you would like to share? If so, please send us your photo.

 
Sectional chart

 
Airport distance calculator
Flying to Pine Island Airport? Find the distance to fly.

From to 1FA3

Sunrise and sunset
Times for 12-Nov-2019
 Local
(UTC-5)
 Zulu
(UTC)
Morning civil twilight06:2211:22
Sunrise06:4711:47
Sunset17:3922:39
Evening civil twilight18:0323:03

Current date and time
Zulu (UTC)  12-Nov-2019 14:21:44
Local (UTC-5)  12-Nov-2019 09:21:44
 
METAR
KFMY 
14nm E 
121353Z 13003KT 10SM CLR 24/18 A2998 RMK AO2 SLP154 T02390183
KPGD 
17nm NE 
121353Z 00000KT 10SM CLR 22/19 A3000 RMK AO2 SLP159 T02220194
KRSW 
20nm E 
121353Z 00000KT 10SM CLR 23/19 A2999 RMK AO2 SLP152 T02330189
TAF
KFMY 
14nm E 
121121Z 1212/1312 VRB03KT P6SM FEW060 SCT200 FM121900 26004KT P6SM FEW030 SCT200 FM130000 31005KT P6SM SCT030 BKN200 FM130500 36009KT P6SM SCT015 BKN030
KPGD 
17nm NE 
121121Z 1212/1312 VRB04KT 3SM BR FEW005 TEMPO 1212/1214 1SM BR BKN005 FM121800 24004KT P6SM FEW030 SCT200 FM122000 27006KT P6SM SCT030 BKN100 FM130500 34008KT P6SM SCT015 BKN030
NOTAMs
Click for the latest NOTAMs
NOTAMs are issued by the DoD/FAA and will open in a separate window not controlled by AirNav.

 

 
 

Would you like to see your business listed on this page?

 If your business provides an interesting product or service to pilots, flight crews, aircraft, or users of the Pine Island Airport, you should consider listing it here.  To start the listing process, click on the button below
 
Add a business
 

Other Pages about Pine Island Airport

www.pineislandairport.com
 
Update a link
 
Copyright © AirNav, LLC. All rights reserved. Privacy Policy  Contact